sensor_id;sensor_type;location;lat;lon;timestamp;P1;durP1;ratioP1;P2;durP2;ratioP2
23826;SDS011;12094;50.822;4.376;2022-10-28T00:01:13;16.25;;;5.22;;
23826;SDS011;12094;50.822;4.376;2022-10-28T00:03:43;17.85;;;5.38;;
23826;SDS011;12094;50.822;4.376;2022-10-28T00:06:15;19.05;;;4.95;;
23826;SDS011;12094;50.822;4.376;2022-10-28T00:08:46;13.35;;;4.47;;
23826;SDS011;12094;50.822;4.376;2022-10-28T00:11:17;23.23;;;5.28;;
23826;SDS011;12094;50.822;4.376;2022-10-28T00:13:47;20.20;;;5.28;;
23826;SDS011;12094;50.822;4.376;2022-10-28T00:16:21;18.75;;;5.45;;
23826;SDS011;12094;50.822;4.376;2022-10-28T00:18:52;20.27;;;5.30;;
23826;SDS011;12094;50.822;4.376;2022-10-28T00:21:21;21.20;;;5.03;;
23826;SDS011;12094;50.822;4.376;2022-10-28T00:23:50;15.32;;;4.80;;
23826;SDS011;12094;50.822;4.376;2022-10-28T00:26:19;14.52;;;4.93;;
23826;SDS011;12094;50.822;4.376;2022-10-28T00:28:52;14.80;;;4.75;;
23826;SDS011;12094;50.822;4.376;2022-10-28T00:31:24;21.50;;;5.03;;
23826;SDS011;12094;50.822;4.376;2022-10-28T00:33:53;11.93;;;5.03;;
23826;SDS011;12094;50.822;4.376;2022-10-28T00:36:22;13.77;;;4.90;;
23826;SDS011;12094;50.822;4.376;2022-10-28T00:38:52;17.38;;;4.53;;
23826;SDS011;12094;50.822;4.376;2022-10-28T00:41:29;14.95;;;4.38;;
23826;SDS011;12094;50.822;4.376;2022-10-28T00:43:59;13.45;;;4.53;;
23826;SDS011;12094;50.822;4.376;2022-10-28T00:46:41;17.27;;;4.72;;
23826;SDS011;12094;50.822;4.376;2022-10-28T00:49:25;21.88;;;5.07;;
23826;SDS011;12094;50.822;4.376;2022-10-28T00:52:01;16.75;;;4.57;;
23826;SDS011;12094;50.822;4.376;2022-10-28T00:54:38;14.45;;;3.95;;
23826;SDS011;12094;50.822;4.376;2022-10-28T00:57:07;15.88;;;4.70;;
23826;SDS011;12094;50.822;4.376;2022-10-28T00:59:40;19.75;;;4.53;;
23826;SDS011;12094;50.822;4.376;2022-10-28T01:02:14;20.65;;;5.00;;
23826;SDS011;12094;50.822;4.376;2022-10-28T01:04:42;21.00;;;4.30;;
23826;SDS011;12094;50.822;4.376;2022-10-28T01:07:10;24.20;;;4.85;;
23826;SDS011;12094;50.822;4.376;2022-10-28T01:09:38;22.08;;;4.70;;
23826;SDS011;12094;50.822;4.376;2022-10-28T01:12:18;18.65;;;4.78;;
23826;SDS011;12094;50.822;4.376;2022-10-28T01:18:07;12.75;;;4.88;;
23826;SDS011;12094;50.822;4.376;2022-10-28T01:34:28;15.90;;;4.53;;
23826;SDS011;12094;50.822;4.376;2022-10-28T01:39:54;16.65;;;4.35;;
23826;SDS011;12094;50.822;4.376;2022-10-28T01:42:46;22.17;;;5.15;;
23826;SDS011;12094;50.822;4.376;2022-10-28T01:45:44;14.10;;;4.80;;
23826;SDS011;12094;50.822;4.376;2022-10-28T01:51:20;13.20;;;4.57;;
23826;SDS011;12094;50.822;4.376;2022-10-28T01:54:00;17.95;;;4.95;;
23826;SDS011;12094;50.822;4.376;2022-10-28T01:56:32;14.85;;;4.55;;
23826;SDS011;12094;50.822;4.376;2022-10-28T01:59:04;23.60;;;4.40;;
23826;SDS011;12094;50.822;4.376;2022-10-28T02:01:34;12.52;;;4.72;;
23826;SDS011;12094;50.822;4.376;2022-10-28T02:04:02;15.68;;;4.95;;
23826;SDS011;12094;50.822;4.376;2022-10-28T02:06:30;14.82;;;4.80;;
23826;SDS011;12094;50.822;4.376;2022-10-28T02:17:49;18.60;;;4.88;;
23826;SDS011;12094;50.822;4.376;2022-10-28T02:34:05;22.45;;;4.93;;
23826;SDS011;12094;50.822;4.376;2022-10-28T02:36:38;18.45;;;4.38;;
23826;SDS011;12094;50.822;4.376;2022-10-28T02:39:09;18.67;;;4.90;;
23826;SDS011;12094;50.822;4.376;2022-10-28T02:41:43;20.02;;;5.00;;
23826;SDS011;12094;50.822;4.376;2022-10-28T02:44:17;15.50;;;4.65;;
23826;SDS011;12094;50.822;4.376;2022-10-28T02:46:53;12.70;;;4.40;;
23826;SDS011;12094;50.822;4.376;2022-10-28T02:49:24;17.23;;;4.63;;
23826;SDS011;12094;50.822;4.376;2022-10-28T02:51:54;16.85;;;4.70;;
23826;SDS011;12094;50.822;4.376;2022-10-28T02:54:38;15.68;;;5.32;;
23826;SDS011;12094;50.822;4.376;2022-10-28T02:59:42;16.47;;;4.80;;
23826;SDS011;12094;50.822;4.376;2022-10-28T03:02:19;15.02;;;5.10;;
23826;SDS011;12094;50.822;4.376;2022-10-28T03:04:48;21.98;;;4.97;;
23826;SDS011;12094;50.822;4.376;2022-10-28T03:07:15;20.40;;;4.70;;
23826;SDS011;12094;50.822;4.376;2022-10-28T03:09:42;18.35;;;4.80;;
23826;SDS011;12094;50.822;4.376;2022-10-28T03:12:10;20.42;;;4.82;;
23826;SDS011;12094;50.822;4.376;2022-10-28T03:14:37;23.63;;;5.28;;
23826;SDS011;12094;50.822;4.376;2022-10-28T03:17:06;13.70;;;4.55;;
23826;SDS011;12094;50.822;4.376;2022-10-28T03:19:33;16.23;;;4.50;;
23826;SDS011;12094;50.822;4.376;2022-10-28T03:22:00;15.98;;;4.53;;
23826;SDS011;12094;50.822;4.376;2022-10-28T03:24:29;18.17;;;5.10;;
23826;SDS011;12094;50.822;4.376;2022-10-28T03:26:58;14.95;;;4.22;;
23826;SDS011;12094;50.822;4.376;2022-10-28T03:29:28;16.35;;;4.97;;
23826;SDS011;12094;50.822;4.376;2022-10-28T03:31:55;19.60;;;5.10;;
23826;SDS011;12094;50.822;4.376;2022-10-28T03:34:25;17.13;;;5.13;;
23826;SDS011;12094;50.822;4.376;2022-10-28T03:36:53;13.40;;;5.82;;
23826;SDS011;12094;50.822;4.376;2022-10-28T03:39:21;19.00;;;4.47;;
23826;SDS011;12094;50.822;4.376;2022-10-28T03:41:48;15.35;;;5.22;;
23826;SDS011;12094;50.822;4.376;2022-10-28T03:44:16;16.23;;;4.78;;
23826;SDS011;12094;50.822;4.376;2022-10-28T03:46:43;19.38;;;5.35;;
23826;SDS011;12094;50.822;4.376;2022-10-28T03:51:59;13.52;;;4.47;;
23826;SDS011;12094;50.822;4.376;2022-10-28T03:54:41;17.65;;;5.30;;
23826;SDS011;12094;50.822;4.376;2022-10-28T03:57:13;18.70;;;5.13;;
23826;SDS011;12094;50.822;4.376;2022-10-28T03:59:55;19.73;;;5.00;;
23826;SDS011;12094;50.822;4.376;2022-10-28T04:02:22;19.42;;;5.07;;
23826;SDS011;12094;50.822;4.376;2022-10-28T04:05:05;15.98;;;4.50;;
23826;SDS011;12094;50.822;4.376;2022-10-28T04:07:34;19.63;;;4.72;;
23826;SDS011;12094;50.822;4.376;2022-10-28T04:10:02;15.45;;;5.13;;
23826;SDS011;12094;50.822;4.376;2022-10-28T04:12:29;15.23;;;5.15;;
23826;SDS011;12094;50.822;4.376;2022-10-28T04:14:57;12.90;;;4.10;;
23826;SDS011;12094;50.822;4.376;2022-10-28T04:17:26;13.75;;;5.22;;
23826;SDS011;12094;50.822;4.376;2022-10-28T04:19:56;16.38;;;4.45;;
23826;SDS011;12094;50.822;4.376;2022-10-28T04:22:26;18.90;;;5.50;;
23826;SDS011;12094;50.822;4.376;2022-10-28T04:25:11;16.60;;;5.07;;
23826;SDS011;12094;50.822;4.376;2022-10-28T04:27:38;12.95;;;4.78;;
23826;SDS011;12094;50.822;4.376;2022-10-28T04:30:07;16.55;;;5.35;;
23826;SDS011;12094;50.822;4.376;2022-10-28T04:32:39;15.35;;;4.53;;
23826;SDS011;12094;50.822;4.376;2022-10-28T04:35:25;16.17;;;5.00;;
23826;SDS011;12094;50.822;4.376;2022-10-28T04:38:01;17.88;;;5.60;;
23826;SDS011;12094;50.822;4.376;2022-10-28T04:40:28;16.70;;;5.53;;
23826;SDS011;12094;50.822;4.376;2022-10-28T04:42:55;20.35;;;5.40;;
23826;SDS011;12094;50.822;4.376;2022-10-28T04:45:22;18.17;;;5.30;;
23826;SDS011;12094;50.822;4.376;2022-10-28T04:47:48;11.35;;;4.38;;
23826;SDS011;12094;50.822;4.376;2022-10-28T04:50:18;17.33;;;4.65;;
23826;SDS011;12094;50.822;4.376;2022-10-28T04:52:46;17.58;;;4.55;;
23826;SDS011;12094;50.822;4.376;2022-10-28T04:55:15;16.20;;;4.97;;
23826;SDS011;12094;50.822;4.376;2022-10-28T05:00:37;17.40;;;4.30;;
23826;SDS011;12094;50.822;4.376;2022-10-28T05:03:20;22.20;;;5.32;;
23826;SDS011;12094;50.822;4.376;2022-10-28T05:05:47;13.75;;;4.75;;
23826;SDS011;12094;50.822;4.376;2022-10-28T05:08:15;23.17;;;5.32;;
23826;SDS011;12094;50.822;4.376;2022-10-28T05:10:42;14.23;;;5.20;;
23826;SDS011;12094;50.822;4.376;2022-10-28T05:13:14;29.65;;;5.07;;
23826;SDS011;12094;50.822;4.376;2022-10-28T05:15:41;16.98;;;5.35;;
23826;SDS011;12094;50.822;4.376;2022-10-28T05:18:08;19.02;;;5.20;;
23826;SDS011;12094;50.822;4.376;2022-10-28T05:20:36;14.88;;;4.43;;
23826;SDS011;12094;50.822;4.376;2022-10-28T05:23:04;20.25;;;5.03;;
23826;SDS011;12094;50.822;4.376;2022-10-28T05:25:32;16.88;;;4.95;;
23826;SDS011;12094;50.822;4.376;2022-10-28T05:28:00;12.75;;;4.57;;
23826;SDS011;12094;50.822;4.376;2022-10-28T05:30:29;17.35;;;5.55;;
23826;SDS011;12094;50.822;4.376;2022-10-28T05:33:10;19.48;;;5.28;;
23826;SDS011;12094;50.822;4.376;2022-10-28T05:35:41;22.48;;;5.30;;
23826;SDS011;12094;50.822;4.376;2022-10-28T05:38:10;17.48;;;4.75;;
23826;SDS011;12094;50.822;4.376;2022-10-28T05:40:37;14.68;;;4.80;;
23826;SDS011;12094;50.822;4.376;2022-10-28T05:43:05;19.95;;;5.28;;
23826;SDS011;12094;50.822;4.376;2022-10-28T05:45:34;18.77;;;5.03;;
23826;SDS011;12094;50.822;4.376;2022-10-28T05:48:02;18.90;;;5.40;;
23826;SDS011;12094;50.822;4.376;2022-10-28T05:50:31;18.33;;;5.13;;
23826;SDS011;12094;50.822;4.376;2022-10-28T05:53:04;22.60;;;5.88;;
23826;SDS011;12094;50.822;4.376;2022-10-28T05:55:33;20.50;;;5.80;;
23826;SDS011;12094;50.822;4.376;2022-10-28T05:58:13;17.25;;;5.10;;
23826;SDS011;12094;50.822;4.376;2022-10-28T06:00:42;17.40;;;5.25;;
23826;SDS011;12094;50.822;4.376;2022-10-28T06:03:10;22.15;;;5.53;;
23826;SDS011;12094;50.822;4.376;2022-10-28T06:05:46;21.10;;;5.35;;
23826;SDS011;12094;50.822;4.376;2022-10-28T06:08:14;22.95;;;5.93;;
23826;SDS011;12094;50.822;4.376;2022-10-28T06:10:41;20.48;;;5.35;;
23826;SDS011;12094;50.822;4.376;2022-10-28T06:13:16;19.83;;;5.30;;
23826;SDS011;12094;50.822;4.376;2022-10-28T06:15:44;15.98;;;6.00;;
23826;SDS011;12094;50.822;4.376;2022-10-28T06:18:18;23.38;;;5.72;;
23826;SDS011;12094;50.822;4.376;2022-10-28T06:20:54;22.52;;;5.68;;
23826;SDS011;12094;50.822;4.376;2022-10-28T06:23:24;16.48;;;5.63;;
23826;SDS011;12094;50.822;4.376;2022-10-28T06:25:58;19.77;;;5.50;;
23826;SDS011;12094;50.822;4.376;2022-10-28T06:28:27;21.42;;;5.53;;
23826;SDS011;12094;50.822;4.376;2022-10-28T06:31:03;23.27;;;5.40;;
23826;SDS011;12094;50.822;4.376;2022-10-28T06:33:31;13.95;;;4.85;;
23826;SDS011;12094;50.822;4.376;2022-10-28T06:36:01;25.95;;;5.43;;
23826;SDS011;12094;50.822;4.376;2022-10-28T06:38:32;19.00;;;5.78;;
23826;SDS011;12094;50.822;4.376;2022-10-28T06:41:00;19.60;;;5.07;;
23826;SDS011;12094;50.822;4.376;2022-10-28T06:46:05;18.90;;;6.03;;
23826;SDS011;12094;50.822;4.376;2022-10-28T06:56:57;20.65;;;5.15;;
23826;SDS011;12094;50.822;4.376;2022-10-28T06:59:24;19.02;;;5.32;;
23826;SDS011;12094;50.822;4.376;2022-10-28T07:01:53;13.60;;;4.88;;
23826;SDS011;12094;50.822;4.376;2022-10-28T07:04:21;21.42;;;5.88;;
23826;SDS011;12094;50.822;4.376;2022-10-28T07:06:53;25.38;;;5.45;;
23826;SDS011;12094;50.822;4.376;2022-10-28T07:09:25;21.23;;;5.87;;
23826;SDS011;12094;50.822;4.376;2022-10-28T07:11:57;22.98;;;5.97;;
23826;SDS011;12094;50.822;4.376;2022-10-28T07:14:31;20.33;;;5.53;;
23826;SDS011;12094;50.822;4.376;2022-10-28T07:17:04;28.87;;;7.17;;
23826;SDS011;12094;50.822;4.376;2022-10-28T07:19:41;19.33;;;5.00;;
23826;SDS011;12094;50.822;4.376;2022-10-28T07:22:12;19.52;;;6.07;;
23826;SDS011;12094;50.822;4.376;2022-10-28T07:24:54;21.88;;;6.55;;
23826;SDS011;12094;50.822;4.376;2022-10-28T07:34:21;20.52;;;5.80;;
23826;SDS011;12094;50.822;4.376;2022-10-28T07:36:54;21.20;;;5.88;;
23826;SDS011;12094;50.822;4.376;2022-10-28T07:39:22;20.80;;;5.30;;
23826;SDS011;12094;50.822;4.376;2022-10-28T07:41:49;21.35;;;6.10;;
23826;SDS011;12094;50.822;4.376;2022-10-28T07:46:58;20.90;;;6.22;;
23826;SDS011;12094;50.822;4.376;2022-10-28T07:49:28;22.10;;;5.60;;
23826;SDS011;12094;50.822;4.376;2022-10-28T07:51:55;21.23;;;5.75;;
23826;SDS011;12094;50.822;4.376;2022-10-28T07:54:24;22.23;;;5.95;;
23826;SDS011;12094;50.822;4.376;2022-10-28T07:56:53;22.55;;;5.85;;
23826;SDS011;12094;50.822;4.376;2022-10-28T07:59:23;22.23;;;5.65;;
23826;SDS011;12094;50.822;4.376;2022-10-28T08:01:53;25.02;;;6.07;;
23826;SDS011;12094;50.822;4.376;2022-10-28T08:04:29;24.92;;;6.45;;
23826;SDS011;12094;50.822;4.376;2022-10-28T08:06:58;21.23;;;6.10;;
23826;SDS011;12094;50.822;4.376;2022-10-28T08:09:29;23.40;;;6.10;;
23826;SDS011;12094;50.822;4.376;2022-10-28T08:11:57;18.95;;;5.72;;
23826;SDS011;12094;50.822;4.376;2022-10-28T08:14:25;21.08;;;6.03;;
23826;SDS011;12094;50.822;4.376;2022-10-28T08:19:48;21.13;;;5.97;;
23826;SDS011;12094;50.822;4.376;2022-10-28T08:22:20;17.60;;;5.70;;
23826;SDS011;12094;50.822;4.376;2022-10-28T08:31:55;26.08;;;5.70;;
23826;SDS011;12094;50.822;4.376;2022-10-28T08:37:12;23.10;;;6.43;;
23826;SDS011;12094;50.822;4.376;2022-10-28T08:39:44;19.75;;;5.57;;
23826;SDS011;12094;50.822;4.376;2022-10-28T08:50:19;24.48;;;5.82;;
23826;SDS011;12094;50.822;4.376;2022-10-28T08:52:55;24.60;;;6.28;;
23826;SDS011;12094;50.822;4.376;2022-10-28T08:55:34;21.15;;;6.03;;
23826;SDS011;12094;50.822;4.376;2022-10-28T08:58:10;25.08;;;5.90;;
23826;SDS011;12094;50.822;4.376;2022-10-28T09:00:45;21.77;;;5.45;;
23826;SDS011;12094;50.822;4.376;2022-10-28T09:03:28;30.13;;;6.20;;
23826;SDS011;12094;50.822;4.376;2022-10-28T09:06:07;21.30;;;6.15;;
23826;SDS011;12094;50.822;4.376;2022-10-28T09:08:54;20.77;;;5.57;;
23826;SDS011;12094;50.822;4.376;2022-10-28T09:17:10;17.45;;;5.35;;
23826;SDS011;12094;50.822;4.376;2022-10-28T09:19:51;16.92;;;5.65;;
23826;SDS011;12094;50.822;4.376;2022-10-28T09:31:38;19.30;;;5.38;;
23826;SDS011;12094;50.822;4.376;2022-10-28T09:33:43;21.50;;;5.25;;
23826;SDS011;12094;50.822;4.376;2022-10-28T09:45:29;15.55;;;4.93;;
23826;SDS011;12094;50.822;4.376;2022-10-28T09:48:11;20.23;;;5.57;;
23826;SDS011;12094;50.822;4.376;2022-10-28T09:51:02;18.60;;;4.78;;
23826;SDS011;12094;50.822;4.376;2022-10-28T09:53:34;17.77;;;5.03;;
23826;SDS011;12094;50.822;4.376;2022-10-28T09:56:03;19.58;;;4.82;;
23826;SDS011;12094;50.822;4.376;2022-10-28T09:58:34;21.50;;;5.28;;
23826;SDS011;12094;50.822;4.376;2022-10-28T10:01:07;23.90;;;5.00;;
23826;SDS011;12094;50.822;4.376;2022-10-28T10:03:35;17.13;;;4.57;;
23826;SDS011;12094;50.822;4.376;2022-10-28T10:06:25;20.08;;;4.60;;
23826;SDS011;12094;50.822;4.376;2022-10-28T10:09:00;28.20;;;5.55;;
23826;SDS011;12094;50.822;4.376;2022-10-28T10:11:42;18.90;;;4.85;;
23826;SDS011;12094;50.822;4.376;2022-10-28T10:14:17;19.08;;;5.28;;
23826;SDS011;12094;50.822;4.376;2022-10-28T10:17:19;26.13;;;4.68;;
23826;SDS011;12094;50.822;4.376;2022-10-28T10:19:59;18.33;;;4.93;;
23826;SDS011;12094;50.822;4.376;2022-10-28T10:22:40;16.75;;;5.60;;
23826;SDS011;12094;50.822;4.376;2022-10-28T10:25:31;25.73;;;4.97;;
23826;SDS011;12094;50.822;4.376;2022-10-28T10:28:04;17.55;;;5.00;;
23826;SDS011;12094;50.822;4.376;2022-10-28T10:30:47;18.83;;;4.28;;
23826;SDS011;12094;50.822;4.376;2022-10-28T10:33:27;19.48;;;5.50;;
23826;SDS011;12094;50.822;4.376;2022-10-28T10:38:36;20.85;;;5.00;;
23826;SDS011;12094;50.822;4.376;2022-10-28T10:41:04;16.33;;;4.45;;
23826;SDS011;12094;50.822;4.376;2022-10-28T10:43:33;19.05;;;5.43;;
23826;SDS011;12094;50.822;4.376;2022-10-28T10:49:11;25.33;;;5.13;;
23826;SDS011;12094;50.822;4.376;2022-10-28T10:51:50;24.52;;;4.95;;
23826;SDS011;12094;50.822;4.376;2022-10-28T10:54:19;20.20;;;4.40;;
23826;SDS011;12094;50.822;4.376;2022-10-28T10:56:47;18.25;;;4.53;;
23826;SDS011;12094;50.822;4.376;2022-10-28T10:59:27;21.20;;;4.82;;
23826;SDS011;12094;50.822;4.376;2022-10-28T11:01:56;19.48;;;5.28;;
23826;SDS011;12094;50.822;4.376;2022-10-28T11:04:25;23.30;;;4.78;;
23826;SDS011;12094;50.822;4.376;2022-10-28T11:06:54;23.33;;;4.70;;
23826;SDS011;12094;50.822;4.376;2022-10-28T11:09:27;25.15;;;4.88;;
23826;SDS011;12094;50.822;4.376;2022-10-28T11:26:30;21.05;;;4.47;;
23826;SDS011;12094;50.822;4.376;2022-10-28T11:29:10;25.55;;;5.20;;
23826;SDS011;12094;50.822;4.376;2022-10-28T11:34:57;21.40;;;4.85;;
23826;SDS011;12094;50.822;4.376;2022-10-28T11:40:09;20.17;;;4.63;;
23826;SDS011;12094;50.822;4.376;2022-10-28T11:45:33;17.55;;;4.30;;
23826;SDS011;12094;50.822;4.376;2022-10-28T11:51:28;19.75;;;4.53;;
23826;SDS011;12094;50.822;4.376;2022-10-28T11:56:44;14.90;;;4.47;;
23826;SDS011;12094;50.822;4.376;2022-10-28T12:05:16;16.92;;;4.75;;
23826;SDS011;12094;50.822;4.376;2022-10-28T12:07:58;19.27;;;4.25;;
23826;SDS011;12094;50.822;4.376;2022-10-28T12:13:58;17.15;;;4.30;;
23826;SDS011;12094;50.822;4.376;2022-10-28T12:16:53;23.52;;;4.55;;
23826;SDS011;12094;50.822;4.376;2022-10-28T12:19:41;17.80;;;4.43;;
23826;SDS011;12094;50.822;4.376;2022-10-28T12:22:20;19.27;;;4.15;;
23826;SDS011;12094;50.822;4.376;2022-10-28T12:24:53;21.30;;;4.65;;
23826;SDS011;12094;50.822;4.376;2022-10-28T12:27:27;19.98;;;4.22;;
23826;SDS011;12094;50.822;4.376;2022-10-28T12:30:06;25.42;;;4.57;;
23826;SDS011;12094;50.822;4.376;2022-10-28T12:32:54;15.82;;;4.05;;
23826;SDS011;12094;50.822;4.376;2022-10-28T12:35:27;16.48;;;3.97;;
23826;SDS011;12094;50.822;4.376;2022-10-28T12:41:06;29.10;;;4.53;;
23826;SDS011;12094;50.822;4.376;2022-10-28T12:52:07;18.73;;;4.03;;
23826;SDS011;12094;50.822;4.376;2022-10-28T12:54:56;15.20;;;4.63;;
23826;SDS011;12094;50.822;4.376;2022-10-28T12:57:32;15.10;;;4.10;;
23826;SDS011;12094;50.822;4.376;2022-10-28T13:00:04;20.33;;;4.35;;
23826;SDS011;12094;50.822;4.376;2022-10-28T13:02:48;19.23;;;4.05;;
23826;SDS011;12094;50.822;4.376;2022-10-28T13:16:45;17.25;;;3.83;;
23826;SDS011;12094;50.822;4.376;2022-10-28T13:25:45;18.95;;;4.72;;
23826;SDS011;12094;50.822;4.376;2022-10-28T13:28:31;17.67;;;4.47;;
23826;SDS011;12094;50.822;4.376;2022-10-28T13:31:02;17.67;;;4.45;;
23826;SDS011;12094;50.822;4.376;2022-10-28T13:33:32;19.17;;;4.72;;
23826;SDS011;12094;50.822;4.376;2022-10-28T13:36:09;15.88;;;4.22;;
23826;SDS011;12094;50.822;4.376;2022-10-28T13:38:49;14.07;;;4.45;;
23826;SDS011;12094;50.822;4.376;2022-10-28T13:41:27;22.55;;;4.28;;
23826;SDS011;12094;50.822;4.376;2022-10-28T13:49:34;25.90;;;5.38;;
23826;SDS011;12094;50.822;4.376;2022-10-28T13:57:11;18.88;;;4.82;;
23826;SDS011;12094;50.822;4.376;2022-10-28T13:59:51;18.15;;;4.75;;
23826;SDS011;12094;50.822;4.376;2022-10-28T14:02:25;20.98;;;5.53;;
23826;SDS011;12094;50.822;4.376;2022-10-28T14:05:07;18.05;;;4.40;;
23826;SDS011;12094;50.822;4.376;2022-10-28T14:07:37;23.92;;;4.47;;
23826;SDS011;12094;50.822;4.376;2022-10-28T14:10:21;18.95;;;4.93;;
23826;SDS011;12094;50.822;4.376;2022-10-28T14:12:57;16.42;;;5.35;;
23826;SDS011;12094;50.822;4.376;2022-10-28T14:15:33;20.63;;;4.85;;
23826;SDS011;12094;50.822;4.376;2022-10-28T14:20:59;20.88;;;5.38;;
23826;SDS011;12094;50.822;4.376;2022-10-28T14:26:14;17.90;;;4.60;;
23826;SDS011;12094;50.822;4.376;2022-10-28T14:34:30;20.23;;;4.60;;
23826;SDS011;12094;50.822;4.376;2022-10-28T14:40:31;18.88;;;4.55;;
23826;SDS011;12094;50.822;4.376;2022-10-28T14:48:44;13.68;;;4.40;;
23826;SDS011;12094;50.822;4.376;2022-10-28T14:51:17;26.45;;;4.68;;
23826;SDS011;12094;50.822;4.376;2022-10-28T14:53:46;20.88;;;5.22;;
23826;SDS011;12094;50.822;4.376;2022-10-28T14:56:18;16.63;;;4.80;;
23826;SDS011;12094;50.822;4.376;2022-10-28T15:04:30;26.08;;;5.53;;
23826;SDS011;12094;50.822;4.376;2022-10-28T15:06:57;12.93;;;4.45;;
23826;SDS011;12094;50.822;4.376;2022-10-28T15:09:28;23.42;;;5.75;;
23826;SDS011;12094;50.822;4.376;2022-10-28T15:11:59;15.85;;;4.65;;
23826;SDS011;12094;50.822;4.376;2022-10-28T15:17:36;19.38;;;5.03;;
23826;SDS011;12094;50.822;4.376;2022-10-28T15:20:27;21.23;;;5.15;;
23826;SDS011;12094;50.822;4.376;2022-10-28T15:23:11;27.33;;;5.38;;
23826;SDS011;12094;50.822;4.376;2022-10-28T15:25:44;20.27;;;5.20;;
23826;SDS011;12094;50.822;4.376;2022-10-28T15:28:13;18.48;;;4.57;;
23826;SDS011;12094;50.822;4.376;2022-10-28T15:30:41;16.95;;;5.10;;
23826;SDS011;12094;50.822;4.376;2022-10-28T15:33:31;24.70;;;6.28;;
23826;SDS011;12094;50.822;4.376;2022-10-28T15:36:06;23.55;;;5.30;;
23826;SDS011;12094;50.822;4.376;2022-10-28T15:38:40;20.50;;;4.97;;
23826;SDS011;12094;50.822;4.376;2022-10-28T15:41:33;20.33;;;5.22;;
23826;SDS011;12094;50.822;4.376;2022-10-28T15:44:20;14.00;;;4.80;;
23826;SDS011;12094;50.822;4.376;2022-10-28T15:46:54;22.65;;;4.97;;
23826;SDS011;12094;50.822;4.376;2022-10-28T15:49:38;20.60;;;5.63;;
23826;SDS011;12094;50.822;4.376;2022-10-28T15:52:18;19.27;;;5.10;;
23826;SDS011;12094;50.822;4.376;2022-10-28T15:54:55;19.40;;;5.07;;
23826;SDS011;12094;50.822;4.376;2022-10-28T15:57:27;25.00;;;5.10;;
23826;SDS011;12094;50.822;4.376;2022-10-28T16:03:00;17.88;;;5.25;;
23826;SDS011;12094;50.822;4.376;2022-10-28T16:08:05;19.30;;;5.07;;
23826;SDS011;12094;50.822;4.376;2022-10-28T16:10:51;18.88;;;5.32;;
23826;SDS011;12094;50.822;4.376;2022-10-28T16:13:37;15.55;;;4.93;;
23826;SDS011;12094;50.822;4.376;2022-10-28T16:21:36;18.17;;;5.63;;
23826;SDS011;12094;50.822;4.376;2022-10-28T16:24:04;24.92;;;6.00;;
23826;SDS011;12094;50.822;4.376;2022-10-28T16:26:34;20.65;;;5.38;;
23826;SDS011;12094;50.822;4.376;2022-10-28T16:29:01;24.98;;;5.57;;
23826;SDS011;12094;50.822;4.376;2022-10-28T16:31:28;23.38;;;6.22;;
23826;SDS011;12094;50.822;4.376;2022-10-28T16:40:00;21.27;;;5.70;;
23826;SDS011;12094;50.822;4.376;2022-10-28T16:42:27;22.08;;;6.47;;
23826;SDS011;12094;50.822;4.376;2022-10-28T16:44:53;18.95;;;6.45;;
23826;SDS011;12094;50.822;4.376;2022-10-28T16:47:21;16.15;;;6.13;;
23826;SDS011;12094;50.822;4.376;2022-10-28T16:49:52;24.80;;;6.40;;
23826;SDS011;12094;50.822;4.376;2022-10-28T16:52:25;24.27;;;6.55;;
23826;SDS011;12094;50.822;4.376;2022-10-28T16:54:58;24.90;;;6.10;;
23826;SDS011;12094;50.822;4.376;2022-10-28T16:59:56;21.80;;;6.43;;
23826;SDS011;12094;50.822;4.376;2022-10-28T17:04:56;28.73;;;6.38;;
23826;SDS011;12094;50.822;4.376;2022-10-28T17:10:16;24.35;;;6.10;;
23826;SDS011;12094;50.822;4.376;2022-10-28T17:12:44;24.23;;;6.20;;
23826;SDS011;12094;50.822;4.376;2022-10-28T17:15:12;24.60;;;7.82;;
23826;SDS011;12094;50.822;4.376;2022-10-28T17:17:39;19.35;;;7.32;;
23826;SDS011;12094;50.822;4.376;2022-10-28T17:20:07;22.20;;;7.18;;
23826;SDS011;12094;50.822;4.376;2022-10-28T17:22:34;22.30;;;7.70;;
23826;SDS011;12094;50.822;4.376;2022-10-28T17:25:01;28.75;;;7.07;;
23826;SDS011;12094;50.822;4.376;2022-10-28T17:27:28;16.95;;;7.20;;
23826;SDS011;12094;50.822;4.376;2022-10-28T17:29:55;22.38;;;7.50;;
23826;SDS011;12094;50.822;4.376;2022-10-28T17:35:38;23.83;;;6.80;;
23826;SDS011;12094;50.822;4.376;2022-10-28T17:38:06;20.83;;;6.95;;
23826;SDS011;12094;50.822;4.376;2022-10-28T17:40:33;24.17;;;7.10;;
23826;SDS011;12094;50.822;4.376;2022-10-28T17:43:01;20.33;;;6.78;;
23826;SDS011;12094;50.822;4.376;2022-10-28T17:45:28;28.90;;;7.90;;
23826;SDS011;12094;50.822;4.376;2022-10-28T17:50:25;26.02;;;7.57;;
23826;SDS011;12094;50.822;4.376;2022-10-28T17:52:54;29.38;;;8.18;;
23826;SDS011;12094;50.822;4.376;2022-10-28T17:55:22;23.45;;;7.65;;
23826;SDS011;12094;50.822;4.376;2022-10-28T17:57:50;25.38;;;8.07;;
23826;SDS011;12094;50.822;4.376;2022-10-28T18:00:17;23.05;;;7.88;;
23826;SDS011;12094;50.822;4.376;2022-10-28T18:02:44;23.67;;;6.88;;
23826;SDS011;12094;50.822;4.376;2022-10-28T18:29:11;24.23;;;7.60;;
23826;SDS011;12094;50.822;4.376;2022-10-28T18:31:39;25.38;;;7.47;;
23826;SDS011;12094;50.822;4.376;2022-10-28T18:34:07;19.40;;;7.55;;
23826;SDS011;12094;50.822;4.376;2022-10-28T18:36:39;28.65;;;7.72;;
23826;SDS011;12094;50.822;4.376;2022-10-28T18:39:06;22.90;;;8.10;;
23826;SDS011;12094;50.822;4.376;2022-10-28T18:41:37;28.15;;;8.73;;
23826;SDS011;12094;50.822;4.376;2022-10-28T18:44:09;30.23;;;8.80;;
23826;SDS011;12094;50.822;4.376;2022-10-28T18:46:40;25.45;;;8.70;;
23826;SDS011;12094;50.822;4.376;2022-10-28T18:49:11;26.23;;;9.27;;
23826;SDS011;12094;50.822;4.376;2022-10-28T18:51:38;28.33;;;8.70;;
23826;SDS011;12094;50.822;4.376;2022-10-28T18:54:05;24.90;;;8.00;;
23826;SDS011;12094;50.822;4.376;2022-10-28T18:56:32;27.40;;;8.05;;
23826;SDS011;12094;50.822;4.376;2022-10-28T18:59:01;23.13;;;8.60;;
23826;SDS011;12094;50.822;4.376;2022-10-28T19:01:30;31.00;;;8.00;;
23826;SDS011;12094;50.822;4.376;2022-10-28T19:04:02;28.13;;;9.88;;
23826;SDS011;12094;50.822;4.376;2022-10-28T19:06:31;25.88;;;8.20;;
23826;SDS011;12094;50.822;4.376;2022-10-28T19:09:00;26.52;;;9.05;;
23826;SDS011;12094;50.822;4.376;2022-10-28T19:11:35;30.85;;;9.00;;
23826;SDS011;12094;50.822;4.376;2022-10-28T19:14:03;24.08;;;9.15;;
23826;SDS011;12094;50.822;4.376;2022-10-28T19:16:33;33.85;;;9.93;;
23826;SDS011;12094;50.822;4.376;2022-10-28T19:19:06;27.00;;;9.32;;
23826;SDS011;12094;50.822;4.376;2022-10-28T19:21:34;28.88;;;9.60;;
23826;SDS011;12094;50.822;4.376;2022-10-28T19:26:31;27.98;;;10.15;;
23826;SDS011;12094;50.822;4.376;2022-10-28T19:28:59;30.08;;;10.35;;
23826;SDS011;12094;50.822;4.376;2022-10-28T19:31:34;34.78;;;10.40;;
23826;SDS011;12094;50.822;4.376;2022-10-28T19:34:06;26.15;;;10.20;;
23826;SDS011;12094;50.822;4.376;2022-10-28T19:36:35;25.52;;;10.40;;
23826;SDS011;12094;50.822;4.376;2022-10-28T19:39:04;25.48;;;9.07;;
23826;SDS011;12094;50.822;4.376;2022-10-28T19:41:33;33.65;;;10.07;;
23826;SDS011;12094;50.822;4.376;2022-10-28T19:44:01;27.40;;;10.18;;
23826;SDS011;12094;50.822;4.376;2022-10-28T19:46:31;27.67;;;9.80;;
23826;SDS011;12094;50.822;4.376;2022-10-28T19:49:00;33.47;;;9.90;;
23826;SDS011;12094;50.822;4.376;2022-10-28T19:51:31;28.15;;;9.90;;
23826;SDS011;12094;50.822;4.376;2022-10-28T19:54:03;34.35;;;10.18;;